Time;durP1;ratioP1;P1;durP2;ratioP2;P2;SDS_P1;SDS_P2;PMS_P1;PMS_P2;Temp;Humidity;BMP_temperature;BMP_pressure;BME280_temperature;BME280_humidity;BME280_pressure;Samples;Min_cycle;Max_cycle;Signal;HPM_P1;HPM_P2
2022/07/11 00:02:05;;;;;;;6.07;2.40;;;19.00;99.90;;;;;;5079588;28;20028;-63
2022/07/11 00:04:31;;;;;;;4.82;2.50;;;19.00;99.90;;;;;;5078544;28;20024;-62
2022/07/11 00:06:58;;;;;;;3.78;2.25;;;19.00;99.90;;;;;;5080038;28;20029;-60
2022/07/11 00:09:24;;;;;;;5.97;2.60;;;19.00;99.90;;;;;;5079353;28;20033;-60
2022/07/11 00:11:50;;;;;;;8.00;2.75;;;19.00;99.90;;;;;;5079389;28;20097;-62
2022/07/11 00:14:18;;;;;;;5.00;2.55;;;18.90;99.90;;;;;;5079325;28;20037;-63
2022/07/11 00:16:44;;;;;;;6.25;2.70;;;18.90;99.90;;;;;;5079742;28;20046;-63
2022/07/11 00:19:10;;;;;;;4.18;2.45;;;18.80;99.90;;;;;;5078465;28;20115;-63
2022/07/11 00:21:36;;;;;;;3.80;2.40;;;18.80;99.90;;;;;;5079293;28;20020;-63
2022/07/11 00:24:03;;;;;;;4.18;2.25;;;18.80;99.90;;;;;;5078427;28;20055;-62
2022/07/11 00:26:29;;;;;;;9.48;2.92;;;18.70;99.90;;;;;;5079788;28;20099;-62
2022/07/11 00:28:55;;;;;;;3.33;2.38;;;18.70;99.90;;;;;;5079404;28;20119;-63
2022/07/11 00:31:21;;;;;;;5.65;2.65;;;18.60;99.90;;;;;;5079111;28;20415;-63
2022/07/11 00:33:47;;;;;;;3.90;2.10;;;18.70;99.90;;;;;;5078272;28;20363;-63
2022/07/11 00:36:13;;;;;;;5.38;2.33;;;18.70;99.90;;;;;;5078950;28;20112;-63
2022/07/11 00:38:39;;;;;;;5.35;2.47;;;18.70;99.90;;;;;;5078289;28;20075;-63
2022/07/11 00:41:05;;;;;;;3.38;2.22;;;18.70;99.90;;;;;;5078856;28;20300;-62
2022/07/11 00:43:36;;;;;;;4.72;2.28;;;18.60;99.90;;;;;;5078846;28;20024;-63
2022/07/11 00:46:02;;;;;;;3.88;2.50;;;18.40;99.90;;;;;;5079157;28;20047;-63
2022/07/11 00:48:28;;;;;;;5.38;2.33;;;18.50;99.90;;;;;;5059990;28;20020;-62
2022/07/11 00:50:55;;;;;;;2.90;2.10;;;18.40;99.90;;;;;;5078599;28;20120;-62
2022/07/11 00:53:21;;;;;;;7.50;2.80;;;18.40;99.90;;;;;;5078570;28;20039;-62
2022/07/11 00:55:48;;;;;;;4.63;2.53;;;18.40;99.90;;;;;;5078510;28;20136;-62
2022/07/11 00:58:14;;;;;;;4.32;2.38;;;18.40;99.90;;;;;;5078539;28;20032;-61
2022/07/11 01:00:40;;;;;;;4.65;2.00;;;18.40;99.90;;;;;;5078452;28;20043;-62
2022/07/11 01:03:09;;;;;;;4.15;2.30;;;18.50;99.90;;;;;;5078711;28;20040;-62
2022/07/11 01:05:35;;;;;;;4.78;2.40;;;18.50;99.90;;;;;;5078146;28;20028;-61
2022/07/11 01:08:01;;;;;;;4.90;2.22;;;18.40;99.90;;;;;;5078242;28;20028;-62
2022/07/11 01:10:27;;;;;;;4.47;2.53;;;18.30;99.90;;;;;;5078242;28;20040;-62
2022/07/11 01:12:54;;;;;;;4.32;2.30;;;18.20;99.90;;;;;;5078140;28;20021;-62
2022/07/11 01:15:19;;;;;;;4.55;2.40;;;18.40;99.90;;;;;;5078174;28;20036;-62
2022/07/11 01:17:45;;;;;;;5.22;2.70;;;18.40;99.90;;;;;;5078160;28;20037;-61
2022/07/11 01:20:11;;;;;;;3.85;2.20;;;18.40;99.90;;;;;;5077372;28;20112;-63
2022/07/11 01:22:44;;;;;;;4.97;2.50;;;18.40;99.90;;;;;;5078097;28;20024;-63
2022/07/11 01:25:10;;;;;;;2.30;2.05;;;18.30;99.90;;;;;;5078105;28;20052;-62
2022/07/11 01:27:36;;;;;;;3.78;2.45;;;18.20;99.90;;;;;;5077880;28;20075;-64
2022/07/11 01:30:04;;;;;;;4.95;2.58;;;18.20;99.90;;;;;;5077881;28;20094;-62
2022/07/11 01:32:30;;;;;;;5.47;2.78;;;18.10;99.90;;;;;;5077828;28;20031;-62
2022/07/11 01:34:56;;;;;;;3.95;2.50;;;18.10;99.90;;;;;;5078143;28;20036;-62
2022/07/11 01:37:21;;;;;;;6.03;2.95;;;18.00;99.90;;;;;;5077116;28;20075;-63
2022/07/11 01:39:47;;;;;;;5.03;2.90;;;17.90;99.90;;;;;;5076852;28;20105;-62
2022/07/11 01:42:13;;;;;;;5.05;3.45;;;17.90;99.90;;;;;;5077314;28;20296;-63
2022/07/11 01:44:39;;;;;;;4.60;3.42;;;17.90;99.90;;;;;;5077726;28;20028;-62
2022/07/11 01:47:05;;;;;;;7.70;4.13;;;17.80;99.90;;;;;;5076839;28;20048;-62
2022/07/11 01:49:30;;;;;;;7.57;3.60;;;17.80;99.90;;;;;;5077615;28;20529;-62
2022/07/11 01:51:56;;;;;;;5.03;3.78;;;17.70;99.90;;;;;;5076848;28;20064;-62
2022/07/11 01:54:22;;;;;;;8.57;4.32;;;17.70;99.90;;;;;;5077433;28;20036;-62
2022/07/11 01:56:48;;;;;;;6.38;4.72;;;17.60;99.90;;;;;;5077273;28;20048;-61
2022/07/11 01:59:14;;;;;;;6.10;4.28;;;17.60;99.90;;;;;;5076209;28;20043;-62
2022/07/11 02:01:40;;;;;;;8.85;5.18;;;17.60;99.90;;;;;;5077370;28;20056;-62
2022/07/11 02:04:06;;;;;;;8.35;4.93;;;17.60;99.90;;;;;;5077299;28;20029;-62
2022/07/11 02:06:32;;;;;;;6.53;5.20;;;17.70;99.90;;;;;;5077280;28;20059;-62
2022/07/11 02:08:58;;;;;;;8.82;6.15;;;17.60;99.90;;;;;;5077181;28;20039;-62
2022/07/11 02:11:24;;;;;;;8.80;6.30;;;17.70;99.90;;;;;;5077265;28;20359;-62
2022/07/11 02:13:50;;;;;;;12.20;6.70;;;17.60;99.90;;;;;;5076492;28;20104;-63
2022/07/11 02:16:16;;;;;;;9.38;5.63;;;17.60;99.90;;;;;;5076320;28;20311;-62
2022/07/11 02:18:41;;;;;;;8.77;5.97;;;17.60;99.90;;;;;;5077358;28;20127;-63
2022/07/11 02:21:09;;;;;;;7.53;5.88;;;17.60;99.90;;;;;;5077095;28;20115;-63
2022/07/11 02:23:34;;;;;;;11.05;6.85;;;17.50;99.90;;;;;;5077121;28;20032;-62
2022/07/11 02:26:00;;;;;;;11.27;6.80;;;17.50;99.90;;;;;;5077144;28;20449;-62
2022/07/11 02:28:26;;;;;;;7.20;5.72;;;17.50;99.90;;;;;;5077221;28;20037;-62
2022/07/11 02:30:52;;;;;;;12.05;6.68;;;17.60;99.90;;;;;;5076372;28;20396;-61
2022/07/11 02:33:17;;;;;;;7.55;5.32;;;17.50;99.90;;;;;;5076895;28;20028;-62
2022/07/11 02:35:45;;;;;;;7.82;6.28;;;17.50;99.90;;;;;;5077461;28;20047;-61
2022/07/11 02:38:12;;;;;;;6.53;5.38;;;17.60;99.90;;;;;;5076256;28;20333;-62
2022/07/11 02:40:38;;;;;;;8.85;6.40;;;17.60;99.90;;;;;;5076868;28;20036;-62
2022/07/11 02:43:05;;;;;;;9.65;7.15;;;17.50;99.90;;;;;;5076154;28;20032;-63
2022/07/11 02:45:31;;;;;;;9.63;7.38;;;17.50;99.90;;;;;;5077394;28;20070;-62
2022/07/11 02:47:56;;;;;;;8.73;7.00;;;17.60;99.90;;;;;;5076697;28;20092;-62
2022/07/11 02:50:22;;;;;;;11.68;7.45;;;17.50;99.90;;;;;;5076839;28;20044;-62
2022/07/11 02:52:48;;;;;;;11.10;7.50;;;17.60;99.90;;;;;;5076702;28;20040;-62
2022/07/11 02:55:15;;;;;;;12.38;7.82;;;17.60;99.90;;;;;;5076602;28;20159;-62
2022/07/11 02:57:41;;;;;;;9.45;7.80;;;17.60;99.90;;;;;;5076731;28;20106;-62
2022/07/11 03:00:16;;;;;;;12.38;8.35;;;17.50;99.90;;;;;;5076667;28;20025;-62
2022/07/11 03:02:42;;;;;;;10.57;9.48;;;17.50;99.90;;;;;;5076643;28;20407;-63
2022/07/11 03:05:08;;;;;;;15.13;11.07;;;17.40;99.90;;;;;;5075893;28;20335;-61
2022/07/11 03:07:34;;;;;;;13.98;11.00;;;17.40;99.90;;;;;;5076374;28;20249;-62
2022/07/11 03:10:00;;;;;;;20.70;12.05;;;17.40;99.90;;;;;;5075774;28;20097;-62
2022/07/11 03:12:27;;;;;;;17.15;14.38;;;17.40;99.90;;;;;;5079125;28;20024;-63
2022/07/11 03:14:53;;;;;;;20.23;14.40;;;17.40;99.90;;;;;;5080499;28;20116;-61
2022/07/11 03:17:19;;;;;;;20.75;15.18;;;17.50;99.90;;;;;;5079714;28;20116;-62
2022/07/11 03:19:46;;;;;;;22.15;16.83;;;17.50;99.90;;;;;;5080411;28;20032;-62
2022/07/11 03:22:13;;;;;;;23.10;16.05;;;17.40;99.90;;;;;;5080314;28;20048;-62
2022/07/11 03:24:41;;;;;;;19.77;15.38;;;17.30;99.90;;;;;;5080309;28;20047;-62
2022/07/11 03:27:07;;;;;;;21.70;15.93;;;17.30;99.90;;;;;;5080200;28;20384;-61
2022/07/11 03:29:33;;;;;;;22.27;16.08;;;17.20;99.90;;;;;;5079469;28;20032;-63
2022/07/11 03:31:59;;;;;;;20.38;14.40;;;17.30;99.90;;;;;;5080746;28;20033;-60
2022/07/11 03:34:25;;;;;;;20.13;15.32;;;17.30;99.90;;;;;;5079265;28;20351;-60
2022/07/11 03:36:51;;;;;;;21.67;16.27;;;17.30;99.90;;;;;;5080135;28;20407;-63
2022/07/11 03:39:17;;;;;;;21.58;15.70;;;17.40;99.90;;;;;;5079596;28;20064;-61
2022/07/11 03:41:43;;;;;;;20.42;14.82;;;17.40;99.90;;;;;;5079767;28;20051;-62
2022/07/11 03:44:09;;;;;;;22.08;14.68;;;17.40;99.90;;;;;;5062384;28;20021;-62
2022/07/11 03:46:35;;;;;;;22.20;14.75;;;17.40;99.90;;;;;;5079235;28;20033;-62
2022/07/11 03:49:01;;;;;;;21.88;15.27;;;17.40;99.90;;;;;;5079865;28;20361;-62
2022/07/11 03:51:27;;;;;;;21.05;13.15;;;17.40;99.90;;;;;;5079688;28;20020;-62
2022/07/11 03:53:53;;;;;;;18.50;13.88;;;17.40;99.90;;;;;;5079646;28;20089;-62
2022/07/11 03:56:22;;;;;;;22.60;13.25;;;17.30;99.90;;;;;;5079420;28;20428;-61
2022/07/11 03:58:51;;;;;;;20.85;13.05;;;17.30;99.90;;;;;;5079600;28;20037;-62
2022/07/11 04:01:19;;;;;;;19.63;13.35;;;17.30;99.90;;;;;;5079715;28;20090;-62
2022/07/11 04:03:46;;;;;;;17.20;12.48;;;17.20;99.90;;;;;;5079570;28;20036;-62
2022/07/11 04:06:12;;;;;;;16.27;12.52;;;17.10;99.90;;;;;;5079569;28;20037;-61
2022/07/11 04:08:38;;;;;;;18.38;11.75;;;17.20;99.90;;;;;;5079503;28;20419;-63
2022/07/11 04:11:04;;;;;;;18.77;13.35;;;17.10;99.90;;;;;;5079500;28;20055;-62
2022/07/11 04:13:30;;;;;;;15.38;12.93;;;17.10;99.90;;;;;;5079492;28;20029;-62
2022/07/11 04:15:56;;;;;;;18.90;12.27;;;17.10;99.90;;;;;;5079843;28;20029;-62
2022/07/11 04:18:22;;;;;;;18.88;12.20;;;17.20;99.90;;;;;;5079334;28;20040;-62
2022/07/11 04:20:49;;;;;;;15.57;12.52;;;17.20;99.90;;;;;;5079791;28;20366;-62
2022/07/11 04:23:18;;;;;;;16.63;12.82;;;17.20;99.90;;;;;;5079158;28;20399;-62
2022/07/11 04:25:44;;;;;;;20.02;12.15;;;17.30;99.90;;;;;;5079263;28;20082;-62
2022/07/11 04:28:10;;;;;;;17.33;13.40;;;17.20;99.90;;;;;;5079153;28;20052;-62
2022/07/11 04:30:35;;;;;;;18.58;12.52;;;17.30;99.90;;;;;;5079204;28;20327;-61
2022/07/11 04:33:01;;;;;;;17.48;13.10;;;17.30;99.90;;;;;;5079397;28;20025;-62
2022/07/11 04:35:27;;;;;;;19.48;13.20;;;17.30;99.90;;;;;;5079016;28;20044;-59
2022/07/11 04:37:54;;;;;;;25.38;14.50;;;17.30;99.90;;;;;;5078926;28;20127;-61
2022/07/11 04:40:23;;;;;;;22.85;14.32;;;17.30;99.90;;;;;;5078055;28;20335;-61
2022/07/11 04:42:52;;;;;;;19.33;13.45;;;17.30;99.90;;;;;;5078437;28;20028;-60
2022/07/11 04:45:19;;;;;;;18.00;12.70;;;17.40;99.90;;;;;;5078791;28;20273;-62
2022/07/11 04:47:44;;;;;;;19.80;14.55;;;17.50;99.90;;;;;;5078638;28;20361;-62
2022/07/11 04:50:10;;;;;;;19.88;13.60;;;17.30;99.90;;;;;;5078737;28;20111;-63
2022/07/11 04:52:36;;;;;;;18.80;13.30;;;17.20;99.90;;;;;;5079119;28;20071;-62
2022/07/11 04:55:02;;;;;;;19.35;13.18;;;17.30;99.90;;;;;;5078375;28;20132;-61
2022/07/11 04:57:28;;;;;;;16.88;11.60;;;17.30;99.90;;;;;;5079343;28;20028;-62
2022/07/11 04:59:53;;;;;;;21.05;12.13;;;17.40;99.90;;;;;;5078341;28;20032;-61
2022/07/11 05:02:19;;;;;;;20.30;11.55;;;17.40;99.90;;;;;;5078524;28;20424;-61
2022/07/11 05:04:45;;;;;;;20.38;11.93;;;17.50;99.90;;;;;;5078328;28;20374;-61
2022/07/11 05:07:13;;;;;;;15.38;10.52;;;17.50;99.90;;;;;;5078291;28;20082;-61
2022/07/11 05:09:39;;;;;;;16.85;10.23;;;17.50;99.90;;;;;;5061153;28;20056;-61
2022/07/11 05:12:06;;;;;;;15.05;9.88;;;17.60;99.90;;;;;;5060774;28;20055;-61
2022/07/11 05:14:32;;;;;;;16.45;10.25;;;17.60;99.90;;;;;;5078127;28;20139;-61
2022/07/11 05:16:58;;;;;;;16.15;11.32;;;17.70;99.90;;;;;;5077523;28;20108;-62
2022/07/11 05:19:24;;;;;;;17.90;11.00;;;17.80;99.90;;;;;;5078144;28;20029;-60
2022/07/11 05:21:49;;;;;;;17.02;12.13;;;17.80;99.90;;;;;;5078057;28;20089;-61
2022/07/11 05:24:17;;;;;;;17.00;12.50;;;17.90;99.90;;;;;;5077881;28;20101;-62
2022/07/11 05:26:44;;;;;;;17.83;12.10;;;17.90;99.90;;;;;;5078388;28;20052;-60
2022/07/11 05:29:10;;;;;;;18.15;10.85;;;18.00;99.90;;;;;;5076938;28;20301;-63
2022/07/11 05:31:36;;;;;;;17.35;11.02;;;18.00;99.90;;;;;;5077892;28;20029;-62
2022/07/11 05:34:02;;;;;;;16.45;9.98;;;18.10;99.90;;;;;;5077280;28;20400;-61
2022/07/11 05:36:28;;;;;;;16.65;11.00;;;18.30;99.90;;;;;;5077804;28;20039;-61
2022/07/11 05:38:53;;;;;;;12.68;10.30;;;18.30;99.90;;;;;;5077710;28;20037;-61
2022/07/11 05:41:19;;;;;;;13.10;9.27;;;18.40;99.90;;;;;;5078110;28;20384;-62
2022/07/11 05:43:45;;;;;;;12.00;9.10;;;18.40;99.90;;;;;;5077888;28;20040;-61
2022/07/11 05:46:11;;;;;;;12.27;9.15;;;18.50;99.90;;;;;;5077662;28;20033;-61
2022/07/11 05:48:36;;;;;;;10.98;7.18;;;18.40;99.90;;;;;;5077458;28;20039;-63
2022/07/11 05:51:02;;;;;;;9.40;6.30;;;18.50;99.90;;;;;;5076735;28;20300;-62
2022/07/11 05:53:28;;;;;;;12.13;7.40;;;18.30;99.90;;;;;;5076701;28;20357;-61
2022/07/11 05:55:54;;;;;;;9.85;6.30;;;18.50;99.90;;;;;;5077531;28;20048;-61
2022/07/11 05:58:21;;;;;;;8.48;6.35;;;18.50;99.90;;;;;;5077355;28;20037;-62
2022/07/11 06:00:46;;;;;;;6.80;5.35;;;18.70;99.90;;;;;;5077284;28;20037;-61
2022/07/11 06:03:12;;;;;;;9.80;5.93;;;18.70;99.90;;;;;;5077228;28;20277;-61
2022/07/11 06:05:38;;;;;;;7.32;6.13;;;18.60;99.90;;;;;;5077940;28;20029;-61
2022/07/11 06:10:49;;;;;;;8.23;5.85;;;18.90;99.90;;;;;;5076325;28;20033;-62
2022/07/11 06:13:15;;;;;;;9.68;6.30;;;18.90;99.90;;;;;;5077495;28;20028;-62
2022/07/11 06:15:41;;;;;;;8.27;6.47;;;18.80;99.90;;;;;;5077670;28;20028;-61
2022/07/11 06:18:06;;;;;;;9.02;4.78;;;18.90;99.90;;;;;;5077017;28;20032;-62
2022/07/11 06:20:32;;;;;;;7.10;5.88;;;19.10;99.90;;;;;;5076982;28;20044;-61
2022/07/11 06:22:58;;;;;;;7.90;5.63;;;19.30;99.90;;;;;;5077094;28;20021;-62
2022/07/11 06:25:24;;;;;;;10.02;5.68;;;19.40;99.90;;;;;;5077086;28;20075;-62
2022/07/11 06:27:49;;;;;;;8.68;5.57;;;19.50;99.90;;;;;;5077001;28;20028;-62
2022/07/11 06:30:15;;;;;;;8.50;5.75;;;19.70;99.90;;;;;;5077054;28;20094;-60
2022/07/11 06:32:41;;;;;;;6.50;5.47;;;20.00;99.90;;;;;;5077617;28;20069;-61
2022/07/11 06:35:08;;;;;;;9.10;5.40;;;20.10;99.90;;;;;;5076933;28;20052;-62
2022/07/11 06:37:33;;;;;;;10.82;5.70;;;20.10;99.90;;;;;;5077512;28;20029;-62
2022/07/11 06:39:59;;;;;;;7.07;5.72;;;20.30;99.90;;;;;;5076756;28;20021;-62
2022/07/11 06:42:25;;;;;;;6.25;4.68;;;20.00;99.90;;;;;;5076843;28;20052;-62
2022/07/11 06:44:54;;;;;;;6.18;4.60;;;20.20;99.90;;;;;;5076777;28;20093;-62
2022/07/11 06:47:20;;;;;;;8.05;4.97;;;20.70;99.90;;;;;;5077416;28;20035;-62
2022/07/11 06:49:46;;;;;;;5.55;4.95;;;21.10;99.90;;;;;;5076783;28;20036;-61
2022/07/11 06:52:11;;;;;;;7.35;4.78;;;21.30;99.90;;;;;;5076878;28;20355;-61
2022/07/11 06:54:37;;;;;;;7.47;5.28;;;21.20;99.90;;;;;;5076721;28;20112;-61
2022/07/11 06:57:03;;;;;;;8.13;5.25;;;21.40;99.90;;;;;;5076688;28;20041;-60
2022/07/11 06:59:29;;;;;;;6.88;5.25;;;21.30;99.90;;;;;;5076518;28;20036;-61
2022/07/11 07:01:55;;;;;;;6.20;5.28;;;21.20;99.90;;;;;;5076684;28;20078;-62
2022/07/11 07:04:20;;;;;;;8.05;5.55;;;20.90;99.90;;;;;;5076636;28;20159;-61
2022/07/11 07:06:46;;;;;;;5.65;4.75;;;20.90;99.90;;;;;;5076642;28;20033;-60
2022/07/11 07:09:13;;;;;;;5.60;5.00;;;21.10;99.90;;;;;;5076737;28;20110;-62
2022/07/11 07:11:38;;;;;;;5.30;4.80;;;21.40;99.90;;;;;;5076556;28;20044;-61
2022/07/11 07:14:04;;;;;;;5.88;4.80;;;21.50;99.90;;;;;;5076505;28;20315;-60
2022/07/11 07:16:30;;;;;;;6.03;4.57;;;21.70;99.90;;;;;;5076587;28;20056;-61
2022/07/11 07:18:56;;;;;;;5.00;3.35;;;21.80;99.90;;;;;;5076679;28;20059;-66
2022/07/11 07:21:22;;;;;;;5.57;3.25;;;21.60;99.90;;;;;;5077082;28;20036;-62
2022/07/11 07:23:47;;;;;;;4.40;3.28;;;21.60;99.90;;;;;;5076768;28;20075;-64
2022/07/11 07:26:13;;;;;;;4.32;2.92;;;21.80;99.90;;;;;;5079350;28;20140;-70
2022/07/11 07:28:39;;;;;;;4.40;2.70;;;21.90;99.90;;;;;;5080384;28;20393;-68
2022/07/11 07:31:06;;;;;;;5.00;2.90;;;21.50;99.90;;;;;;5080428;28;20097;-70
2022/07/11 07:33:31;;;;;;;4.13;2.67;;;21.60;99.90;;;;;;5078072;28;20047;-67
2022/07/11 07:35:57;;;;;;;6.97;4.05;;;21.50;99.90;;;;;;5079013;28;20363;-69
2022/07/11 07:38:23;;;;;;;4.95;3.72;;;21.30;99.90;;;;;;5080064;28;20036;-67
2022/07/11 07:40:49;;;;;;;7.13;3.85;;;21.30;99.90;;;;;;5079706;28;20284;-68
2022/07/11 07:43:14;;;;;;;6.43;3.75;;;21.30;99.90;;;;;;5079616;28;20046;-68
2022/07/11 07:45:40;;;;;;;5.40;3.55;;;21.40;99.90;;;;;;5079157;28;20107;-69
2022/07/11 07:48:06;;;;;;;8.57;4.10;;;21.50;99.90;;;;;;5080793;28;20033;-70
2022/07/11 07:50:32;;;;;;;5.20;4.57;;;21.70;99.90;;;;;;5079346;28;20044;-69
2022/07/11 07:52:58;;;;;;;5.68;4.70;;;21.20;99.90;;;;;;5082259;28;20068;-68
2022/07/11 07:55:25;;;;;;;5.43;4.57;;;21.60;99.90;;;;;;5080658;28;20053;-68
2022/07/11 07:57:51;;;;;;;4.95;3.97;;;21.80;99.90;;;;;;5085484;28;20057;-63
2022/07/11 08:03:05;;;;;;;7.28;5.28;;;21.70;99.90;;;;;;5080037;28;20162;-61
2022/07/11 08:05:31;;;;;;;6.68;4.68;;;21.00;99.90;;;;;;5079638;28;20028;-62
2022/07/11 08:07:57;;;;;;;6.88;5.85;;;21.20;99.90;;;;;;5079614;28;20415;-62
2022/07/11 08:10:23;;;;;;;9.65;5.18;;;21.40;99.90;;;;;;5079578;28;20096;-62
2022/07/11 08:12:48;;;;;;;7.63;4.82;;;21.70;99.90;;;;;;5078698;28;20075;-62
2022/07/11 08:15:14;;;;;;;7.68;6.13;;;21.70;99.90;;;;;;5078631;28;20071;-62
2022/07/11 08:17:41;;;;;;;7.10;6.05;;;22.40;99.90;;;;;;5079331;28;20120;-61
2022/07/11 08:20:08;;;;;;;6.88;6.18;;;22.60;99.90;;;;;;5079190;28;20424;-61
2022/07/11 08:22:34;;;;;;;7.28;5.97;;;22.50;99.90;;;;;;5079599;28;20029;-62
2022/07/11 08:25:00;;;;;;;9.30;6.40;;;22.40;99.90;;;;;;5079303;28;20024;-62
2022/07/11 08:27:26;;;;;;;6.40;5.70;;;22.20;99.90;;;;;;5079789;28;20020;-63
2022/07/11 08:29:51;;;;;;;9.40;6.97;;;22.30;99.90;;;;;;5079141;28;20412;-61
2022/07/11 08:32:17;;;;;;;7.00;6.38;;;22.60;99.90;;;;;;5079257;28;20028;-63
2022/07/11 08:34:45;;;;;;;8.25;5.82;;;22.60;99.90;;;;;;5078389;28;20028;-61
2022/07/11 08:37:11;;;;;;;6.68;5.97;;;22.20;99.90;;;;;;5079072;28;20174;-62
2022/07/11 08:39:36;;;;;;;6.43;5.82;;;22.00;99.90;;;;;;5078959;28;20100;-63
2022/07/11 08:42:02;;;;;;;6.70;5.45;;;22.30;99.90;;;;;;5078253;28;20056;-61
2022/07/11 08:44:28;;;;;;;6.32;5.28;;;22.70;99.90;;;;;;5078903;28;20115;-61
2022/07/11 08:46:55;;;;;;;6.00;5.03;;;23.20;99.90;;;;;;5078886;28;20167;-62
2022/07/11 08:49:22;;;;;;;6.18;5.55;;;23.30;99.90;;;;;;5078722;28;20028;-62
2022/07/11 08:51:48;;;;;;;8.88;7.38;;;22.80;99.90;;;;;;5078689;28;20024;-65
2022/07/11 08:54:14;;;;;;;10.73;7.40;;;23.10;99.90;;;;;;5078876;28;20103;-63
2022/07/11 08:56:43;;;;;;;11.43;7.95;;;23.30;99.90;;;;;;5078473;28;20072;-62
2022/07/11 08:59:10;;;;;;;8.20;7.13;;;23.10;99.90;;;;;;5078490;28;20103;-62
2022/07/11 09:01:40;;;;;;;7.95;7.18;;;23.20;99.90;;;;;;5078453;28;20033;-62
2022/07/11 09:04:07;;;;;;;8.48;7.00;;;23.20;99.90;;;;;;5078687;28;20103;-63
2022/07/11 09:06:35;;;;;;;8.10;6.30;;;22.70;99.90;;;;;;5078925;28;20028;-62
2022/07/11 09:09:01;;;;;;;7.07;6.35;;;23.30;99.90;;;;;;5077208;28;20461;-62
2022/07/11 09:11:28;;;;;;;11.85;7.13;;;23.60;99.90;;;;;;5078332;28;20028;-63
2022/07/11 09:13:53;;;;;;;8.40;6.32;;;24.00;99.90;;;;;;5078270;28;20300;-62
2022/07/11 09:16:19;;;;;;;6.80;5.50;;;23.90;99.90;;;;;;5078842;28;20047;-63
2022/07/11 09:18:45;;;;;;;9.35;6.13;;;24.10;99.90;;;;;;5078218;28;20081;-64
2022/07/11 09:26:50;;;;;;;7.70;5.18;;;23.90;99.90;;;;;;5078013;28;20396;-63
2022/07/11 09:29:21;;;;;;;6.50;5.32;;;23.40;99.90;;;;;;5077991;28;20377;-62
2022/07/11 09:31:48;;;;;;;5.78;4.82;;;23.70;99.90;;;;;;5077985;28;20021;-62
2022/07/11 09:34:16;;;;;;;5.72;4.88;;;24.30;99.90;;;;;;5077753;28;20031;-63
2022/07/11 09:36:43;;;;;;;5.38;4.75;;;24.20;99.90;;;;;;5077801;28;20296;-63
2022/07/11 09:39:15;;;;;;;4.72;4.10;;;23.40;99.90;;;;;;5077631;28;20028;-62
2022/07/11 09:41:42;;;;;;;7.03;4.85;;;23.90;99.90;;;;;;5077879;28;20040;-62
2022/07/11 09:44:08;;;;;;;5.03;4.53;;;24.30;99.90;;;;;;5077649;28;20063;-63
2022/07/11 09:46:35;;;;;;;6.18;4.15;;;24.60;99.90;;;;;;5077878;28;20400;-61
2022/07/11 09:49:01;;;;;;;6.07;5.30;;;24.60;99.90;;;;;;5077857;28;20043;-62
2022/07/11 09:51:27;;;;;;;7.03;5.20;;;24.50;99.90;;;;;;5077611;28;20025;-63
2022/07/11 09:53:57;;;;;;;6.85;4.57;;;24.00;99.90;;;;;;5077727;28;20078;-62
2022/07/11 09:56:42;;;;;;;6.93;4.82;;;24.10;99.90;;;;;;5076720;28;20048;-62
2022/07/11 09:59:11;;;;;;;7.20;5.13;;;24.10;99.90;;;;;;5077247;28;20388;-62
2022/07/11 10:01:38;;;;;;;8.48;5.85;;;24.40;99.90;;;;;;5077402;28;20041;-62
2022/07/11 10:04:08;;;;;;;5.55;4.95;;;24.10;99.90;;;;;;5076554;28;20037;-63
2022/07/11 10:06:35;;;;;;;5.47;4.57;;;24.40;99.90;;;;;;5076607;28;20067;-62
2022/07/11 10:09:04;;;;;;;8.00;5.30;;;24.30;99.90;;;;;;5077274;28;20035;-62
2022/07/11 10:11:31;;;;;;;4.15;3.75;;;24.00;99.90;;;;;;5077391;28;20063;-62
2022/07/11 10:14:00;;;;;;;6.82;3.75;;;24.00;99.90;;;;;;5077414;28;20028;-63
2022/07/11 10:16:31;;;;;;;5.00;4.50;;;24.10;99.90;;;;;;5077111;28;20033;-62
2022/07/11 10:19:18;;;;;;;6.35;4.47;;;24.50;99.90;;;;;;5076986;28;20273;-63
2022/07/11 10:21:53;;;;;;;6.25;4.43;;;24.20;99.90;;;;;;5076726;28;20242;-62
2022/07/11 10:24:45;;;;;;;4.28;3.53;;;24.30;99.90;;;;;;5076991;28;20024;-62
2022/07/11 10:27:35;;;;;;;;;;;24.40;99.90;;;;;;5076731;28;20024;-62
2022/07/11 10:30:01;;;;;;;5.53;2.92;;;24.60;99.90;;;;;;5077050;28;19908;-63
2022/07/11 10:32:27;;;;;;;4.85;3.60;;;25.60;99.90;;;;;;5076855;28;20414;-63
2022/07/11 10:35:10;;;;;;;4.57;3.60;;;25.80;99.90;;;;;;5076889;28;20040;-63
2022/07/11 10:37:52;;;;;;;4.70;3.53;;;25.90;99.90;;;;;;5076996;28;20028;-63
2022/07/11 10:40:54;;;;;;;5.50;3.30;;;26.20;99.90;;;;;;5076992;28;20032;-63
2022/07/11 10:43:20;;;;;;;3.00;2.70;;;26.10;99.90;;;;;;5076161;28;20079;-63
2022/07/11 10:46:00;;;;;;;6.13;3.45;;;25.60;99.90;;;;;;5076837;28;20595;-63
2022/07/11 10:48:27;;;;;;;4.20;3.63;;;25.50;99.90;;;;;;5076746;28;20076;-64
2022/07/11 10:51:19;;;;;;;5.28;3.38;;;24.90;99.90;;;;;;5076811;28;20126;-63
2022/07/11 10:53:47;;;;;;;5.28;3.33;;;25.10;99.90;;;;;;5076187;28;20316;-63
2022/07/11 10:56:45;;;;;;;4.53;3.10;;;25.50;99.90;;;;;;5076452;28;20057;-63
2022/07/11 10:59:16;;;;;;;5.90;3.20;;;25.60;99.90;;;;;;5075663;28;20101;-62
2022/07/11 11:02:02;;;;;;;3.42;2.35;;;25.50;99.90;;;;;;5076436;28;20024;-62
2022/07/11 11:04:48;;;;;;;4.82;3.10;;;26.40;99.90;;;;;;5076468;28;20036;-63
2022/07/11 11:07:27;;;;;;;4.88;3.15;;;27.00;99.90;;;;;;5075838;28;20024;-63
2022/07/11 11:09:53;;;;;;;6.95;4.30;;;26.80;99.90;;;;;;5076599;28;20028;-61
2022/07/11 11:12:20;;;;;;;6.18;3.35;;;26.50;99.90;;;;;;5076608;28;20093;-63
2022/07/11 11:14:46;;;;;;;5.00;2.88;;;27.40;99.90;;;;;;5076561;28;20036;-63
2022/07/11 11:17:34;;;;;;;3.47;3.17;;;29.20;99.90;;;;;;5076436;28;20024;-62
2022/07/11 11:20:01;;;;;;;3.00;2.80;;;31.20;99.90;;;;;;5076395;28;20381;-62
2022/07/11 11:22:28;;;;;;;4.50;3.10;;;31.30;99.90;;;;;;5076525;28;20043;-62
2022/07/11 11:24:55;;;;;;;4.22;3.38;;;30.10;99.90;;;;;;5076366;28;20063;-62
2022/07/11 11:27:23;;;;;;;2.80;2.53;;;31.20;99.90;;;;;;5075768;28;20029;-62
2022/07/11 11:29:56;;;;;;;3.67;2.60;;;32.10;99.90;;;;;;5075699;28;20056;-64
2022/07/11 11:32:29;;;;;;;5.45;2.90;;;31.30;99.90;;;;;;5076995;28;20068;-63
2022/07/11 11:34:56;;;;;;;5.03;3.15;;;30.90;99.90;;;;;;5080293;28;20029;-62
2022/07/11 11:37:23;;;;;;;3.88;2.45;;;30.80;99.90;;;;;;5080470;28;20107;-63
2022/07/11 11:39:57;;;;;;;4.30;2.63;;;30.30;99.90;;;;;;5080171;28;20036;-62
2022/07/11 11:42:23;;;;;;;5.00;3.70;;;29.30;99.90;;;;;;5080683;28;20039;-63
2022/07/11 11:44:54;;;;;;;3.60;2.55;;;29.10;99.90;;;;;;5079353;28;20036;-62
2022/07/11 11:47:20;;;;;;;5.57;3.00;;;30.40;99.90;;;;;;5079950;28;20431;-62
2022/07/11 11:49:47;;;;;;;3.45;3.00;;;30.40;99.90;;;;;;5079806;28;20278;-62
2022/07/11 11:52:14;;;;;;;3.22;2.90;;;30.50;99.90;;;;;;5079702;28;20032;-63
2022/07/11 11:54:39;;;;;;;2.80;2.50;;;31.10;99.90;;;;;;5079639;28;20036;-62
2022/07/11 11:57:13;;;;;;;4.38;2.20;;;32.60;99.90;;;;;;5079044;28;20047;-63
2022/07/11 11:59:40;;;;;;;6.15;2.70;;;32.50;99.90;;;;;;5079605;28;20123;-63
2022/07/11 12:02:06;;;;;;;3.65;2.50;;;32.70;99.90;;;;;;5079706;28;20029;-64
2022/07/11 12:04:35;;;;;;;4.03;2.80;;;34.10;99.90;;;;;;5079828;28;20051;-63
2022/07/11 12:07:02;;;;;;;3.75;2.38;;;33.70;99.90;;;;;;5079644;28;20017;-63
2022/07/11 12:09:47;;;;;;;8.98;2.50;;;32.80;99.90;;;;;;5079636;28;20028;-62
2022/07/11 12:15:31;;;;;;;3.17;2.45;;;35.20;99.90;;;;;;5079538;28;20285;-62
2022/07/11 12:17:59;;;;;;;3.13;2.17;;;35.70;95.30;;;;;;5079309;28;20331;-63
2022/07/11 12:20:40;;;;;;;3.13;2.00;;;36.60;95.00;;;;;;5079328;28;20052;-62
2022/07/11 12:23:12;;;;;;;4.63;2.53;;;36.10;94.20;;;;;;5079825;28;20036;-61
2022/07/11 12:25:38;;;;;;;4.00;2.95;;;34.80;94.10;;;;;;5079383;28;20036;-62
2022/07/11 12:28:07;;;;;;;5.78;3.55;;;34.50;95.40;;;;;;5079263;28;20048;-63
2022/07/11 12:30:33;;;;;;;8.50;3.30;;;33.70;96.90;;;;;;5079176;28;20029;-62
2022/07/11 12:33:14;;;;;;;4.72;2.75;;;34.20;96.30;;;;;;5079220;28;20039;-65
2022/07/11 12:35:56;;;;;;;4.15;2.90;;;31.20;99.90;;;;;;5079087;28;20122;-65
2022/07/11 12:38:22;;;;;;;3.33;2.83;;;31.10;99.90;;;;;;5079026;28;20044;-63
2022/07/11 12:41:02;;;;;;;4.22;2.75;;;31.00;99.90;;;;;;5079018;28;20047;-63
2022/07/11 12:46:37;;;;;;;3.55;2.60;;;31.20;99.90;;;;;;5078393;28;20067;-63
2022/07/11 12:49:05;;;;;;;4.70;2.65;;;30.00;99.90;;;;;;5078895;28;20029;-64
2022/07/11 12:51:34;;;;;;;2.72;2.50;;;30.20;99.90;;;;;;5078819;28;20044;-63
2022/07/11 12:54:15;;;;;;;5.78;2.90;;;32.60;99.90;;;;;;5078686;28;20447;-64
2022/07/11 12:56:52;;;;;;;2.83;2.50;;;33.10;98.00;;;;;;5078659;28;20431;-64
2022/07/11 12:59:23;;;;;;;2.22;1.98;;;31.60;99.70;;;;;;5078607;28;20029;-63
2022/07/11 13:02:03;;;;;;;2.30;2.10;;;30.30;99.90;;;;;;5079159;28;20033;-63
2022/07/11 13:04:34;;;;;;;3.05;1.90;;;30.30;99.90;;;;;;5078595;28;20119;-65